createdAt,value
2022-08-26T00:00:20.243Z,55.99
2022-08-26T00:03:03.786Z,58.78
2022-08-26T00:05:32.414Z,57.82
2022-08-26T00:08:00.843Z,58.12
2022-08-26T00:10:29.778Z,58.34
2022-08-26T00:12:59.357Z,56.98
2022-08-26T00:15:56.880Z,56.23
2022-08-26T00:18:25.966Z,56.37
2022-08-26T00:20:55.141Z,56.39
2022-08-26T00:23:24.381Z,56.19
2022-08-26T00:25:54.976Z,56.48
2022-08-26T00:28:26.646Z,56.31
2022-08-26T00:30:57.691Z,55.82
2022-08-26T00:33:26.037Z,55.55
2022-08-26T00:35:54.465Z,55.66
2022-08-26T00:38:24.191Z,55.64
2022-08-26T00:40:55.828Z,55.70
2022-08-26T00:43:26.786Z,55.70
2022-08-26T00:46:06.602Z,56.58
2022-08-26T00:48:37.779Z,56.86
2022-08-26T00:51:17.153Z,56.42
2022-08-26T00:53:53.791Z,57.83
2022-08-26T00:56:30.133Z,57.65
2022-08-26T00:59:02.261Z,57.69
2022-08-26T01:01:33.276Z,57.58
2022-08-26T01:04:02.285Z,58.11
2022-08-26T01:06:31.628Z,58.15
2022-08-26T01:09:00.181Z,58.93
2022-08-26T01:11:28.629Z,60.76
2022-08-26T01:13:59.663Z,62.54
2022-08-26T01:16:30.828Z,65.59
2022-08-26T01:19:06.635Z,68.40
2022-08-26T01:21:44.193Z,71.90
2022-08-26T01:24:14.024Z,77.09
2022-08-26T01:26:44.896Z,77.72
2022-08-26T01:29:17.952Z,75.24
2022-08-26T01:31:52.465Z,74.73
2022-08-26T01:34:26.125Z,73.63
2022-08-26T01:37:15.497Z,72.86
2022-08-26T01:39:49.122Z,73.35
2022-08-26T01:42:20.369Z,72.20
2022-08-26T01:44:57.438Z,71.86
2022-08-26T01:47:46.936Z,71.88
2022-08-26T01:50:27.774Z,71.15
2022-08-26T01:53:00.399Z,71.71
2022-08-26T01:55:33.215Z,71.19
2022-08-26T01:58:08.308Z,70.94
2022-08-26T02:00:38.226Z,71.26
2022-08-26T02:03:17.445Z,75.83
2022-08-26T02:05:51.308Z,80.81
2022-08-26T02:08:37.769Z,82.05
2022-08-26T02:11:07.718Z,80.93
2022-08-26T02:13:46.613Z,79.96
2022-08-26T02:16:22.385Z,79.52
2022-08-26T02:18:55.824Z,79.62
2022-08-26T02:21:25.042Z,82.68
2022-08-26T02:23:55.998Z,80.75
2022-08-26T02:26:27.034Z,81.23
2022-08-26T02:29:31.812Z,82.73
2022-08-26T02:32:00.993Z,84.18
2022-08-26T02:34:32.169Z,85.28
2022-08-26T02:37:06.522Z,87.51
2022-08-26T02:39:37.111Z,88.46
2022-08-26T02:42:06.387Z,89.62
2022-08-26T02:44:35.315Z,92.43
2022-08-26T02:47:04.619Z,92.35
2022-08-26T02:49:33.749Z,92.75
2022-08-26T02:52:02.186Z,91.70
2022-08-26T02:54:31.724Z,90.43
2022-08-26T02:57:01.942Z,90.90
2022-08-26T02:59:32.123Z,91.22
2022-08-26T03:02:00.664Z,91.67
2022-08-26T03:04:30.686Z,91.63
2022-08-26T03:07:02.772Z,92.15
2022-08-26T03:09:32.189Z,91.61
2022-08-26T03:12:01.461Z,91.25
2022-08-26T03:14:30.565Z,90.35
2022-08-26T03:16:59.192Z,91.44
2022-08-26T03:19:27.690Z,90.81
2022-08-26T03:21:57.891Z,94.29
2022-08-26T03:24:27.012Z,97.02
2022-08-26T03:26:55.420Z,95.68
2022-08-26T03:29:43.335Z,99.08
2022-08-26T03:32:12.544Z,96.82
2022-08-26T03:34:40.970Z,98.91
2022-08-26T03:37:10.175Z,99.60
2022-08-26T03:39:38.594Z,99.65
2022-08-26T03:42:09.387Z,99.91
2022-08-26T03:44:42.230Z,99.93
2022-08-26T03:47:11.234Z,99.13
2022-08-26T03:49:39.813Z,98.61
2022-08-26T03:52:08.199Z,98.55
2022-08-26T03:54:36.879Z,98.55
2022-08-26T03:57:05.386Z,97.99
2022-08-26T03:59:34.234Z,97.80
2022-08-26T04:02:02.756Z,99.91
2022-08-26T04:04:31.400Z,99.94
2022-08-26T04:07:00.568Z,99.58
2022-08-26T04:09:29.153Z,98.71
2022-08-26T04:11:58.783Z,99.33
2022-08-26T04:14:28.382Z,99.83
2022-08-26T04:16:57.257Z,100.00
2022-08-26T04:19:27.155Z,100.00
2022-08-26T04:21:55.461Z,100.00
2022-08-26T04:24:26.178Z,100.00
2022-08-26T04:26:56.876Z,100.00
2022-08-26T04:29:26.992Z,100.00
2022-08-26T04:31:56.020Z,99.75
2022-08-26T04:34:28.342Z,99.24
2022-08-26T04:36:58.504Z,99.63
2022-08-26T04:39:27.689Z,99.65
2022-08-26T04:41:57.659Z,99.87
2022-08-26T04:44:29.219Z,99.07
2022-08-26T04:46:58.823Z,99.06
2022-08-26T04:49:27.790Z,98.98
2022-08-26T04:51:56.258Z,99.64
2022-08-26T04:54:26.295Z,99.92
2022-08-26T04:56:55.333Z,99.76
2022-08-26T04:59:25.339Z,100.00
2022-08-26T05:04:49.291Z,99.96
2022-08-26T05:07:20.353Z,99.66
2022-08-26T05:09:49.752Z,100.00
2022-08-26T05:12:18.648Z,100.00
2022-08-26T05:14:47.467Z,100.00
2022-08-26T05:17:15.966Z,100.00
2022-08-26T05:19:44.972Z,100.00
2022-08-26T05:22:14.082Z,100.00
2022-08-26T05:24:43.879Z,100.00
2022-08-26T05:27:13.625Z,100.00
2022-08-26T05:29:42.633Z,100.00
2022-08-26T05:32:12.750Z,100.00
2022-08-26T05:34:41.246Z,99.89
2022-08-26T05:37:11.506Z,98.88
2022-08-26T05:39:43.564Z,98.17
2022-08-26T05:42:20.186Z,98.60
2022-08-26T05:44:53.699Z,98.29
2022-08-26T05:47:26.425Z,96.45
2022-08-26T05:49:56.316Z,95.77
2022-08-26T05:52:26.092Z,95.36
2022-08-26T05:54:55.312Z,94.10
2022-08-26T05:57:23.910Z,91.45
2022-08-26T05:59:53.107Z,90.35
2022-08-26T06:02:22.127Z,89.27
2022-08-26T06:04:50.433Z,87.13
2022-08-26T06:07:40.618Z,85.97
2022-08-26T06:10:32.516Z,84.78
2022-08-26T06:13:09.294Z,82.17
2022-08-26T06:15:46.149Z,80.25
2022-08-26T06:18:17.501Z,78.61
2022-08-26T06:20:57.120Z,76.44
2022-08-26T06:23:48.005Z,75.05
2022-08-26T06:26:16.945Z,76.15
2022-08-26T06:28:45.851Z,75.40
2022-08-26T06:31:15.823Z,70.22
2022-08-26T06:33:45.559Z,70.81
2022-08-26T06:36:25.521Z,67.23
2022-08-26T06:38:56.089Z,64.76
2022-08-26T06:41:25.945Z,65.47
2022-08-26T06:43:54.374Z,61.79
2022-08-26T06:46:23.016Z,61.70
2022-08-26T06:48:55.708Z,61.53
2022-08-26T06:51:36.039Z,62.90
2022-08-26T06:54:06.218Z,60.29
2022-08-26T06:56:41.824Z,59.49
2022-08-26T06:59:12.112Z,59.30
2022-08-26T07:01:46.381Z,59.09
2022-08-26T07:04:22.163Z,58.60
2022-08-26T07:06:53.711Z,57.05
2022-08-26T07:09:25.545Z,55.21
2022-08-26T07:11:58.556Z,54.09
2022-08-26T07:14:27.062Z,53.85
2022-08-26T07:16:55.650Z,52.91
2022-08-26T07:19:30.464Z,52.52
2022-08-26T07:22:04.720Z,51.50
2022-08-26T07:24:36.829Z,50.84
2022-08-26T07:27:07.483Z,50.85
2022-08-26T07:29:39.517Z,49.31
2022-08-26T07:32:10.056Z,48.17
2022-08-26T07:34:39.164Z,48.19
2022-08-26T07:37:08.696Z,47.89
2022-08-26T07:39:37.880Z,47.28
2022-08-26T07:42:13.264Z,47.18
2022-08-26T07:44:43.581Z,46.46
2022-08-26T07:47:25.827Z,46.48
2022-08-26T07:49:58.078Z,45.10
2022-08-26T07:52:28.968Z,45.97
2022-08-26T07:54:59.402Z,45.27
2022-08-26T07:57:28.855Z,44.51
2022-08-26T07:59:57.569Z,43.75
2022-08-26T08:02:27.408Z,44.21
2022-08-26T08:04:57.908Z,43.63
2022-08-26T08:07:44.992Z,43.19
2022-08-26T08:10:18.708Z,42.79
2022-08-26T08:12:50.489Z,42.03
2022-08-26T08:15:21.927Z,41.85
2022-08-26T08:17:51.622Z,40.47
2022-08-26T08:20:22.252Z,39.52
2022-08-26T08:22:52.919Z,39.23
2022-08-26T08:25:23.500Z,39.22
2022-08-26T08:27:51.856Z,39.01
2022-08-26T08:30:23.024Z,38.42
2022-08-26T08:32:52.587Z,37.09
2022-08-26T08:35:22.895Z,36.51
2022-08-26T08:37:54.527Z,36.56
2022-08-26T08:40:26.458Z,36.28
2022-08-26T08:43:11.784Z,35.14
2022-08-26T08:45:49.746Z,34.58
2022-08-26T08:48:35.080Z,33.90
2022-08-26T08:51:30.140Z,34.39
2022-08-26T08:54:00.360Z,34.37
2022-08-26T08:56:45.021Z,33.52
2022-08-26T08:59:18.177Z,32.42
2022-08-26T09:01:55.752Z,33.05
2022-08-26T09:05:05.718Z,33.23
2022-08-26T09:07:49.021Z,32.91
2022-08-26T09:10:37.532Z,32.24
2022-08-26T09:13:13.720Z,31.57
2022-08-26T09:16:14.158Z,31.70
2022-08-26T09:19:11.318Z,30.53
2022-08-26T09:21:39.736Z,30.85
2022-08-26T09:24:08.413Z,30.55
2022-08-26T09:26:39.718Z,30.22
2022-08-26T09:29:14.654Z,30.52
2022-08-26T09:31:43.043Z,30.70
2022-08-26T09:34:19.591Z,30.63
2022-08-26T09:36:51.564Z,30.59
2022-08-26T09:39:31.256Z,30.08
2022-08-26T09:42:07.677Z,29.43
2022-08-26T09:44:52.922Z,29.93
2022-08-26T09:47:52.836Z,29.55
2022-08-26T09:50:55.644Z,29.54
2022-08-26T09:53:30.508Z,29.06
2022-08-26T09:56:27.581Z,28.62
2022-08-26T09:58:57.776Z,28.21
2022-08-26T10:01:38.442Z,28.43
2022-08-26T10:04:15.041Z,27.42
2022-08-26T10:07:05.287Z,28.04
2022-08-26T10:09:39.133Z,27.24
2022-08-26T10:12:13.472Z,26.88
2022-08-26T10:15:12.080Z,26.84
2022-08-26T10:17:53.573Z,26.23
2022-08-26T10:20:28.929Z,26.47
2022-08-26T10:23:03.400Z,26.82
2022-08-26T10:25:47.396Z,25.66
2022-08-26T10:28:35.581Z,26.01
2022-08-26T10:31:29.660Z,26.13
2022-08-26T10:34:07.296Z,25.46
2022-08-26T10:39:43.001Z,25.05
2022-08-26T10:42:35.558Z,24.36
2022-08-26T10:45:08.037Z,24.38
2022-08-26T10:47:52.364Z,24.27
2022-08-26T10:50:25.147Z,23.69
2022-08-26T10:53:04.084Z,20.96
2022-08-26T10:55:57.413Z,20.85
2022-08-26T10:58:28.580Z,21.28
2022-08-26T11:01:40.752Z,21.00
2022-08-26T11:04:16.782Z,21.20
2022-08-26T11:06:46.258Z,21.82
2022-08-26T11:09:45.997Z,21.45
2022-08-26T11:12:36.342Z,21.57
2022-08-26T11:15:09.066Z,21.01
2022-08-26T11:17:47.039Z,21.23
2022-08-26T11:20:33.481Z,21.24
2022-08-26T11:23:14.570Z,20.49
2022-08-26T11:26:01.100Z,20.66
2022-08-26T11:28:45.651Z,19.92
2022-08-26T11:31:25.438Z,20.32
2022-08-26T11:34:07.261Z,20.15
2022-08-26T11:36:47.951Z,21.07
2022-08-26T11:39:28.991Z,20.67
2022-08-26T11:42:05.395Z,21.74
2022-08-26T11:44:49.580Z,21.38
2022-08-26T11:47:29.456Z,21.05
2022-08-26T11:50:17.643Z,22.36
2022-08-26T11:53:07.658Z,21.91
2022-08-26T11:55:42.873Z,21.77
2022-08-26T11:58:15.048Z,20.38
2022-08-26T12:00:46.315Z,20.81
2022-08-26T12:03:43.988Z,20.76
2022-08-26T12:06:16.864Z,20.60
2022-08-26T12:08:47.656Z,21.44
2022-08-26T12:11:32.032Z,22.03
2022-08-26T12:14:07.255Z,21.04
2022-08-26T12:16:39.669Z,21.09
2022-08-26T12:19:32.911Z,21.01
2022-08-26T12:22:27.805Z,20.91
2022-08-26T12:24:59.539Z,21.16
2022-08-26T12:27:42.863Z,21.22
2022-08-26T12:30:18.025Z,21.37
2022-08-26T12:33:03.374Z,21.31
2022-08-26T12:35:56.561Z,21.00
2022-08-26T12:38:27.614Z,20.83
2022-08-26T12:40:57.179Z,20.19
2022-08-26T12:43:38.572Z,20.53
2022-08-26T12:46:10.568Z,20.92
2022-08-26T12:48:42.905Z,20.50
2022-08-26T12:51:24.939Z,20.67
2022-08-26T12:53:54.382Z,20.43
2022-08-26T12:56:40.732Z,20.10
2022-08-26T12:59:29.264Z,20.96
2022-08-26T13:01:57.697Z,20.83
2022-08-26T13:04:40.485Z,20.28
2022-08-26T13:07:18.289Z,20.01
2022-08-26T13:09:47.326Z,20.29
2022-08-26T13:12:37.469Z,20.54
2022-08-26T13:15:07.203Z,20.84
2022-08-26T13:17:36.150Z,21.48
2022-08-26T13:20:05.040Z,22.16
2022-08-26T13:22:34.456Z,23.25
2022-08-26T13:25:03.047Z,23.62
2022-08-26T13:27:31.434Z,24.42
2022-08-26T13:30:00.417Z,24.88
2022-08-26T13:32:29.297Z,25.70
2022-08-26T13:34:57.985Z,25.77
2022-08-26T13:37:35.043Z,26.08
2022-08-26T13:40:07.052Z,25.76
2022-08-26T13:42:35.744Z,25.38
2022-08-26T13:45:06.355Z,25.87
2022-08-26T13:47:35.099Z,26.21
2022-08-26T13:50:04.706Z,26.19
2022-08-26T13:52:33.048Z,25.90
2022-08-26T13:55:01.681Z,25.35
2022-08-26T13:57:30.629Z,25.39
2022-08-26T14:00:01.787Z,25.14
2022-08-26T14:02:37.983Z,25.49
2022-08-26T14:05:07.175Z,24.97
2022-08-26T14:07:35.509Z,25.50
2022-08-26T14:10:04.116Z,25.27
2022-08-26T14:12:32.473Z,26.26
2022-08-26T14:15:00.780Z,25.41
2022-08-26T14:17:30.765Z,25.71
2022-08-26T14:19:59.314Z,25.15
2022-08-26T14:22:28.084Z,25.80
2022-08-26T14:24:56.780Z,25.82
2022-08-26T14:27:25.579Z,25.17
2022-08-26T14:29:54.468Z,25.11
2022-08-26T14:32:27.313Z,25.84
2022-08-26T14:34:56.220Z,26.31
2022-08-26T14:37:24.848Z,25.71
2022-08-26T14:40:31.360Z,25.48
2022-08-26T14:43:02.639Z,25.31
2022-08-26T14:45:34.769Z,24.88
2022-08-26T14:48:05.688Z,25.84
2022-08-26T14:50:33.887Z,25.96
2022-08-26T14:53:20.408Z,26.01
2022-08-26T14:55:48.865Z,26.56
2022-08-26T14:58:17.065Z,26.82
2022-08-26T15:00:45.222Z,26.98
2022-08-26T15:05:48.448Z,27.70
2022-08-26T15:08:16.926Z,28.06
2022-08-26T15:10:45.000Z,28.66
2022-08-26T15:13:13.107Z,28.05
2022-08-26T15:15:41.263Z,28.08
2022-08-26T15:18:10.106Z,28.47
2022-08-26T15:20:38.703Z,29.03
2022-08-26T15:23:07.469Z,29.10
2022-08-26T15:25:35.767Z,29.40
2022-08-26T15:28:04.175Z,29.77
2022-08-26T15:30:33.648Z,30.33
2022-08-26T15:33:01.950Z,30.44
2022-08-26T15:35:30.111Z,30.61
2022-08-26T15:38:04.216Z,31.03
2022-08-26T15:40:32.353Z,31.14
2022-08-26T15:43:17.709Z,30.94
2022-08-26T15:45:46.885Z,31.01
2022-08-26T15:48:16.196Z,31.30
2022-08-26T15:50:56.518Z,31.66
2022-08-26T15:53:24.923Z,31.72
2022-08-26T15:55:58.980Z,32.16
2022-08-26T15:58:28.586Z,32.37
2022-08-26T16:00:56.974Z,32.17
2022-08-26T16:03:25.143Z,32.06
2022-08-26T16:05:53.543Z,32.30
2022-08-26T16:08:22.534Z,32.64
2022-08-26T16:10:51.497Z,32.83
2022-08-26T16:13:20.826Z,32.85
2022-08-26T16:15:52.689Z,33.39
2022-08-26T16:18:20.877Z,33.82
2022-08-26T16:21:12.391Z,33.83
2022-08-26T16:23:45.179Z,34.68
2022-08-26T16:26:20.773Z,34.66
2022-08-26T16:28:49.239Z,34.77
2022-08-26T16:31:18.116Z,35.07
2022-08-26T16:33:46.398Z,35.19
2022-08-26T16:36:14.963Z,35.58
2022-08-26T16:38:50.247Z,35.70
2022-08-26T16:41:19.365Z,36.15
2022-08-26T16:43:47.863Z,36.13
2022-08-26T16:46:16.360Z,36.28
2022-08-26T16:48:45.709Z,36.57
2022-08-26T16:51:17.021Z,36.83
2022-08-26T16:53:45.964Z,37.44
2022-08-26T16:56:16.521Z,37.69
2022-08-26T16:58:44.858Z,38.06
2022-08-26T17:01:13.092Z,38.11
2022-08-26T17:03:41.743Z,38.66
2022-08-26T17:06:10.358Z,38.84
2022-08-26T17:08:40.137Z,38.70
2022-08-26T17:11:09.114Z,39.20
2022-08-26T17:13:39.333Z,39.64
2022-08-26T17:16:10.235Z,39.65
2022-08-26T17:18:39.025Z,40.28
2022-08-26T17:21:10.485Z,40.31
2022-08-26T17:23:41.092Z,40.41
2022-08-26T17:26:10.889Z,40.94
2022-08-26T17:28:39.736Z,41.13
2022-08-26T17:31:09.555Z,41.60
2022-08-26T17:33:38.210Z,42.06
2022-08-26T17:36:08.077Z,42.68
2022-08-26T17:38:37.853Z,42.86
2022-08-26T17:41:14.934Z,43.27
2022-08-26T17:43:43.929Z,44.05
2022-08-26T17:46:12.920Z,44.20
2022-08-26T17:48:41.426Z,44.56
2022-08-26T17:51:15.520Z,44.75
2022-08-26T17:53:43.948Z,45.09
2022-08-26T17:56:14.846Z,45.48
2022-08-26T17:58:50.940Z,46.09
2022-08-26T18:01:21.793Z,46.25
2022-08-26T18:03:50.379Z,46.59
2022-08-26T18:06:20.842Z,46.67
2022-08-26T18:08:49.054Z,46.79
2022-08-26T18:11:20.511Z,47.06
2022-08-26T18:13:55.609Z,47.42
2022-08-26T18:16:42.994Z,47.52
2022-08-26T18:19:11.422Z,47.54
2022-08-26T18:21:39.570Z,47.57
2022-08-26T18:24:12.153Z,47.49
2022-08-26T18:26:48.374Z,47.39
2022-08-26T18:29:18.592Z,47.29
2022-08-26T18:31:48.658Z,47.12
2022-08-26T18:34:17.226Z,46.80
2022-08-26T18:36:46.162Z,46.88
2022-08-26T18:39:15.730Z,47.24
2022-08-26T18:41:47.608Z,47.92
2022-08-26T18:44:18.883Z,47.84
2022-08-26T18:46:47.779Z,47.97
2022-08-26T18:49:18.124Z,48.11
2022-08-26T18:51:47.940Z,48.15
2022-08-26T18:54:16.362Z,48.14
2022-08-26T18:56:45.342Z,48.26
2022-08-26T18:59:14.133Z,49.06
2022-08-26T19:01:43.414Z,48.60
2022-08-26T19:04:15.292Z,49.27
2022-08-26T19:06:47.801Z,48.87
2022-08-26T19:09:17.862Z,49.03
2022-08-26T19:11:47.013Z,49.05
2022-08-26T19:14:18.673Z,48.98
2022-08-26T19:16:48.764Z,48.90
2022-08-26T19:19:17.438Z,49.23
2022-08-26T19:21:47.104Z,49.13
2022-08-26T19:24:17.696Z,49.16
2022-08-26T19:26:57.702Z,48.96
2022-08-26T19:29:29.708Z,48.65
2022-08-26T19:31:58.148Z,47.94
2022-08-26T19:34:26.730Z,47.56
2022-08-26T19:36:57.009Z,47.07
2022-08-26T19:39:26.535Z,46.68
2022-08-26T19:41:56.112Z,46.16
2022-08-26T19:44:42.795Z,46.34
2022-08-26T19:47:12.004Z,46.02
2022-08-26T19:49:40.293Z,46.11
2022-08-26T19:52:09.051Z,45.80
2022-08-26T19:54:38.446Z,45.86
2022-08-26T19:57:06.782Z,45.29
2022-08-26T19:59:36.852Z,44.57
2022-08-26T20:02:10.048Z,44.14
2022-08-26T20:04:40.075Z,43.28
2022-08-26T20:07:09.325Z,42.94
2022-08-26T20:09:37.870Z,42.65
2022-08-26T20:12:07.089Z,42.47
2022-08-26T20:14:36.422Z,42.29
2022-08-26T20:17:05.866Z,42.44
2022-08-26T20:19:53.086Z,42.30
2022-08-26T20:22:21.862Z,42.59
2022-08-26T20:24:50.042Z,42.87
2022-08-26T20:27:18.232Z,43.12
2022-08-26T20:29:46.376Z,43.28
2022-08-26T20:32:14.845Z,43.42
2022-08-26T20:34:43.073Z,43.61
2022-08-26T20:37:12.395Z,43.79
2022-08-26T20:39:41.488Z,43.67
2022-08-26T20:42:20.291Z,43.52
2022-08-26T20:44:54.430Z,43.68
2022-08-26T20:47:23.432Z,43.98
2022-08-26T20:49:52.578Z,43.93
2022-08-26T20:52:20.822Z,44.01
2022-08-26T20:54:49.052Z,44.40
2022-08-26T20:57:17.247Z,44.45
2022-08-26T20:59:45.395Z,44.59
2022-08-26T21:02:13.651Z,44.88
2022-08-26T21:04:41.815Z,45.02
2022-08-26T21:07:09.956Z,45.13
2022-08-26T21:09:38.268Z,45.20
2022-08-26T21:12:06.644Z,45.35
2022-08-26T21:14:34.771Z,45.41
2022-08-26T21:17:03.238Z,45.51
2022-08-26T21:19:31.445Z,45.54
2022-08-26T21:21:59.700Z,45.50
2022-08-26T21:24:27.901Z,45.63
2022-08-26T21:26:56.058Z,45.84
2022-08-26T21:29:24.166Z,46.13
2022-08-26T21:31:52.433Z,46.27
2022-08-26T21:34:20.873Z,46.46
2022-08-26T21:36:49.250Z,46.60
2022-08-26T21:39:18.081Z,46.56
2022-08-26T21:41:47.359Z,46.82
2022-08-26T21:44:18.205Z,47.17
2022-08-26T21:46:47.183Z,47.72
2022-08-26T21:49:16.479Z,48.10
2022-08-26T21:51:48.064Z,48.67
2022-08-26T21:54:18.199Z,48.93
2022-08-26T21:56:47.376Z,49.17
2022-08-26T21:59:18.029Z,49.28
2022-08-26T22:01:46.910Z,49.65
2022-08-26T22:04:16.722Z,49.64
2022-08-26T22:06:48.858Z,49.49
2022-08-26T22:09:20.734Z,49.20
2022-08-26T22:11:49.992Z,49.56
2022-08-26T22:14:22.262Z,49.99
2022-08-26T22:16:51.067Z,52.27
2022-08-26T22:19:21.748Z,54.10
2022-08-26T22:21:54.031Z,55.84
2022-08-26T22:24:24.838Z,56.17
2022-08-26T22:26:54.375Z,57.25
2022-08-26T22:29:22.705Z,58.92
2022-08-26T22:31:51.025Z,59.24
2022-08-26T22:34:21.218Z,60.02
2022-08-26T22:36:50.064Z,60.83
2022-08-26T22:39:22.084Z,63.12
2022-08-26T22:41:51.375Z,63.99
2022-08-26T22:44:21.627Z,60.96
2022-08-26T22:46:54.181Z,61.89
2022-08-26T22:49:23.230Z,63.24
2022-08-26T22:51:51.419Z,64.97
2022-08-26T22:54:19.575Z,65.42
2022-08-26T22:56:47.893Z,64.36
2022-08-26T22:59:17.006Z,64.30
2022-08-26T23:01:47.007Z,64.30
2022-08-26T23:04:15.289Z,64.04
2022-08-26T23:06:47.344Z,64.31
2022-08-26T23:09:18.707Z,64.32
2022-08-26T23:11:48.643Z,63.64
2022-08-26T23:14:19.165Z,63.72
2022-08-26T23:16:48.098Z,65.76
2022-08-26T23:19:19.509Z,65.70
2022-08-26T23:21:49.685Z,66.19
2022-08-26T23:24:18.462Z,65.22
2022-08-26T23:26:47.163Z,63.60
2022-08-26T23:29:16.112Z,63.09
2022-08-26T23:31:44.976Z,64.13
2022-08-26T23:34:33.449Z,63.43
2022-08-26T23:37:02.347Z,63.31
2022-08-26T23:39:33.373Z,62.84
2022-08-26T23:42:01.836Z,62.82
2022-08-26T23:44:30.878Z,61.86
2022-08-26T23:46:59.756Z,62.10
2022-08-26T23:49:29.074Z,62.89
2022-08-26T23:52:16.366Z,64.20
2022-08-26T23:54:44.737Z,67.16
2022-08-26T23:57:12.841Z,66.95
2022-08-26T23:59:41.359Z,67.37
